Time;durP1;ratioP1;P1;durP2;ratioP2;P2;SDS_P1;SDS_P2;PMS_P1;PMS_P2;Temp;Humidity;BMP_temperature;BMP_pressure;BME280_temperature;BME280_humidity;BME280_pressure;Samples;Min_cycle;Max_cycle;Signal;HPM_P1;HPM_P2
2023/12/25 00:00:23;;;;;;;;;;;;;;;16.11;37.80;95209.84;10481307;28;2132;-67
2023/12/25 00:05:23;;;;;;;;;;;;;;;16.10;37.66;95205.66;10477375;28;2062;-67
2023/12/25 00:10:24;;;;;;;;;;;;;;;16.11;37.83;95209.84;10481221;28;2045;-66
2023/12/25 00:15:24;;;;;;;;;;;;;;;16.10;37.83;95182.91;10481526;28;5196;-68
2023/12/25 00:20:24;;;;;;;;;;;;;;;16.09;37.86;95186.56;10483267;28;1973;-67
2023/12/25 00:25:25;;;;;;;;;;;;;;;16.09;37.90;95198.88;10467534;28;1987;-65
2023/12/25 00:30:25;;;;;;;;;;;;;;;16.10;37.84;95182.13;10487206;28;2108;-66
2023/12/25 00:35:25;;;;;;;;;;;;;;;16.07;37.89;95191.25;10459705;28;2467;-66
2023/12/25 00:40:25;;;;;;;;;;;;;;;16.08;37.90;95182.41;10475724;28;1906;-66
2023/12/25 00:45:26;;;;;;;;;;;;;;;16.09;37.76;95191.78;10482068;28;1889;-65
2023/12/25 00:50:26;;;;;;;;;;;;;;;16.08;37.92;95199.91;10488050;28;1878;-67
2023/12/25 00:55:26;;;;;;;;;;;;;;;16.08;37.77;95199.91;10483380;28;1915;-67
2023/12/25 01:00:26;;;;;;;;;;;;;;;16.08;37.82;95213.75;10483963;28;2105;-67
2023/12/25 01:05:27;;;;;;;;;;;;;;;16.07;37.88;95224.50;10492545;28;1935;-67
2023/12/25 01:10:27;;;;;;;;;;;;;;;16.08;37.94;95228.66;10482589;28;1927;-67
2023/12/25 01:15:27;;;;;;;;;;;;;;;16.06;37.81;95223.69;10477256;28;4943;-67
2023/12/25 01:20:28;;;;;;;;;;;;;;;16.05;37.97;95227.34;10470458;28;1906;-65
2023/12/25 01:25:28;;;;;;;;;;;;;;;16.06;37.87;95243.81;10476067;28;2210;-65
2023/12/25 01:30:28;;;;;;;;;;;;;;;16.06;37.90;95246.44;10457759;28;2284;-67
2023/12/25 01:35:29;;;;;;;;;;;;;;;16.06;37.87;95243.81;10468342;28;2033;-66
2023/12/25 01:40:29;;;;;;;;;;;;;;;16.05;37.89;95231.81;10453708;28;1914;-66
2023/12/25 01:45:29;;;;;;;;;;;;;;;16.05;37.94;95235.19;10469423;28;1993;-66
2023/12/25 01:50:29;;;;;;;;;;;;;;;16.05;37.92;95237.03;10466427;28;2030;-68
2023/12/25 01:55:30;;;;;;;;;;;;;;;16.04;37.90;95233.63;10462681;28;1910;-65
2023/12/25 02:00:32;;;;;;;;;;;;;;;16.04;37.82;95241.47;10451159;28;1990;-65
2023/12/25 02:05:33;;;;;;;;;;;;;;;16.03;37.91;95242.50;10477679;28;1900;-68
2023/12/25 02:10:33;;;;;;;;;;;;;;;16.02;37.95;95254.00;10481435;28;1960;-68
2023/12/25 02:15:33;;;;;;;;;;;;;;;16.04;37.84;95241.47;10484345;28;5136;-67
2023/12/25 02:20:33;;;;;;;;;;;;;;;16.02;37.98;95243.56;10463302;28;1973;-65
2023/12/25 02:25:37;;;;;;;;;;;;;;;16.04;37.83;95246.69;10480707;28;1923;-66
2023/12/25 02:30:37;;;;;;;;;;;;;;;16.02;37.94;95242.75;10476348;28;1903;-66
2023/12/25 02:35:38;;;;;;;;;;;;;;;16.02;38.00;95234.91;10441878;28;1873;-69
2023/12/25 02:40:41;;;;;;;;;;;;;;;16.01;37.96;95239.34;10476432;28;1975;-66
2023/12/25 02:45:41;;;;;;;;;;;;;;;16.01;37.80;95244.59;10469105;28;1890;-67
2023/12/25 02:50:41;;;;;;;;;;;;;;;16.01;38.04;95241.22;10471885;28;2023;-67
2023/12/25 02:55:42;;;;;;;;;;;;;;;16.01;37.99;95257.66;10461936;28;1968;-66
2023/12/25 03:00:42;;;;;;;;;;;;;;;15.99;37.95;95244.06;10482109;28;1921;-66
2023/12/25 03:05:43;;;;;;;;;;;;;;;16.00;37.96;95222.13;10484714;28;2010;-67
2023/12/25 03:10:43;;;;;;;;;;;;;;;15.98;37.82;95229.44;10473666;28;1975;-67
2023/12/25 03:15:43;;;;;;;;;;;;;;;15.99;37.87;95225.75;10467403;28;4979;-67
2023/12/25 03:20:44;;;;;;;;;;;;;;;15.98;37.95;95234.66;10476235;28;2300;-68
2023/12/25 03:25:44;;;;;;;;;;;;;;;15.98;37.80;95247.72;10447362;28;1912;-68
2023/12/25 03:30:45;;;;;;;;;;;;;;;15.99;37.97;95232.84;10487566;28;1847;-67
2023/12/25 03:35:45;;;;;;;;;;;;;;;15.97;37.91;95243.53;10482121;28;1978;-67
2023/12/25 03:40:45;;;;;;;;;;;;;;;15.96;37.98;95236.75;10462665;28;1930;-66
2023/12/25 03:45:46;;;;;;;;;;;;;;;15.97;37.96;95240.91;10445971;28;2003;-69
2023/12/25 03:50:46;;;;;;;;;;;;;;;15.96;37.95;95239.34;10481876;28;2060;-66
2023/12/25 03:55:47;;;;;;;;;;;;;;;15.97;37.97;95253.97;10469999;28;1887;-66
2023/12/25 04:00:47;;;;;;;;;;;;;;;15.96;37.91;95246.41;10496126;28;1966;-67
2023/12/25 04:05:48;;;;;;;;;;;;;;;15.96;37.95;95260.25;10477318;28;2024;-67
2023/12/25 04:10:48;;;;;;;;;;;;;;;15.95;37.95;95248.22;10490614;28;1880;-67
2023/12/25 04:15:48;;;;;;;;;;;;;;;15.95;37.98;95243.00;10485104;28;1971;-67
2023/12/25 04:20:48;;;;;;;;;;;;;;;15.94;37.82;95241.44;10481918;28;2337;-67
2023/12/25 04:25:49;;;;;;;;;;;;;;;15.95;37.84;95235.16;10474042;28;2038;-67
2023/12/25 04:30:49;;;;;;;;;;;;;;;15.94;37.94;95230.19;10471872;28;2060;-66
2023/12/25 04:35:49;;;;;;;;;;;;;;;15.94;38.12;95232.81;10476642;28;1935;-67
2023/12/25 04:40:50;;;;;;;;;;;;;;;15.92;37.96;95227.84;10480349;28;1957;-66
2023/12/25 04:45:50;;;;;;;;;;;;;;;15.95;37.84;95237.00;10488132;28;1942;-66
2023/12/25 04:50:50;;;;;;;;;;;;;;;15.94;37.93;95238.03;10493772;28;1881;-66
2023/12/25 04:55:51;;;;;;;;;;;;;;;15.93;37.89;95233.84;10489046;28;2222;-68
2023/12/25 05:00:51;;;;;;;;;;;;;;;15.92;37.92;95233.06;10474310;28;1972;-67
2023/12/25 05:05:51;;;;;;;;;;;;;;;15.92;37.92;95233.06;10491438;28;1907;-66
2023/12/25 05:10:51;;;;;;;;;;;;;;;15.92;37.87;95237.50;10478082;28;1908;-67
2023/12/25 05:15:52;;;;;;;;;;;;;;;15.91;37.92;95247.16;10482309;28;5073;-67
2023/12/25 05:20:52;;;;;;;;;;;;;;;15.93;37.96;95250.31;10487739;28;1940;-67
2023/12/25 05:25:52;;;;;;;;;;;;;;;15.91;37.83;95252.38;10465470;28;1963;-66
2023/12/25 05:30:53;;;;;;;;;;;;;;;15.91;38.05;95262.84;10485383;28;1883;-66
2023/12/25 05:35:53;;;;;;;;;;;;;;;15.91;37.91;95259.47;10482564;28;2719;-65
2023/12/25 05:40:53;;;;;;;;;;;;;;;15.90;37.88;95274.34;10485677;28;2117;-65
2023/12/25 05:45:53;;;;;;;;;;;;;;;15.90;37.82;95263.91;10473142;28;2065;-65
2023/12/25 05:50:54;;;;;;;;;;;;;;;15.89;37.80;95254.47;10467131;28;2028;-66
2023/12/25 05:55:54;;;;;;;;;;;;;;;15.89;37.88;95266.78;10467449;28;1939;-65
2023/12/25 06:00:54;;;;;;;;;;;;;;;15.89;37.98;95270.16;10476891;28;1980;-66
2023/12/25 06:05:54;;;;;;;;;;;;;;;15.88;37.95;95273.81;10458465;28;2052;-66
2023/12/25 06:10:55;;;;;;;;;;;;;;;15.88;37.81;95276.44;10483958;28;1876;-65
2023/12/25 06:15:55;;;;;;;;;;;;;;;15.89;37.88;95283.22;10468334;28;4956;-65
2023/12/25 06:20:55;;;;;;;;;;;;;;;15.88;37.88;95276.44;10481915;28;1917;-65
2023/12/25 06:25:55;;;;;;;;;;;;;;;15.87;37.83;95276.66;10480872;28;1871;-65
2023/12/25 06:30:56;;;;;;;;;;;;;;;15.87;37.88;95272.25;10481812;28;2483;-65
2023/12/25 06:35:59;;;;;;;;;;;;;;;15.89;37.84;95285.06;10474330;28;1931;-65
2023/12/25 06:41:03;;;;;;;;;;;;;;;15.87;37.82;95298.38;10482440;28;1963;-65
2023/12/25 06:46:03;;;;;;;;;;;;;;;15.88;37.88;95289.50;10474856;28;2039;-64
2023/12/25 06:51:04;;;;;;;;;;;;;;;15.87;37.88;95298.38;10462911;28;1890;-66
2023/12/25 06:56:05;;;;;;;;;;;;;;;15.87;37.81;95298.38;10483619;28;1930;-65
2023/12/25 07:01:06;;;;;;;;;;;;;;;15.88;37.84;95307.00;10482670;28;1902;-66
2023/12/25 07:06:08;;;;;;;;;;;;;;;15.87;37.90;95306.22;10472432;28;1932;-67
2023/12/25 07:11:08;;;;;;;;;;;;;;;15.87;37.83;95303.59;10480581;28;1891;-64
2023/12/25 07:16:09;;;;;;;;;;;;;;;15.87;37.95;95308.81;10471260;28;4935;-65
2023/12/25 07:21:09;;;;;;;;;;;;;;;15.87;37.89;95303.59;10485133;28;1968;-65
2023/12/25 07:26:09;;;;;;;;;;;;;;;15.87;37.87;95305.41;10487358;28;2716;-66
2023/12/25 07:31:10;;;;;;;;;;;;;;;15.86;37.92;95296.03;10485791;28;1974;-66
2023/12/25 07:36:10;;;;;;;;;;;;;;;15.85;37.86;95284.78;10487724;28;2082;-65
2023/12/25 07:41:10;;;;;;;;;;;;;;;15.86;37.86;95302.03;10487432;28;1972;-65
2023/12/25 07:46:10;;;;;;;;;;;;;;;15.85;37.83;95313.53;10477488;28;2474;-67
2023/12/25 07:51:11;;;;;;;;;;;;;;;15.86;37.88;95324.78;10483091;28;2157;-67
2023/12/25 07:56:11;;;;;;;;;;;;;;;15.86;37.88;95325.56;10490175;28;1867;-67
2023/12/25 08:01:13;;;;;;;;;;;;;;;15.86;37.75;95343.84;10481192;28;1965;-68
2023/12/25 08:06:13;;;;;;;;;;;;;;;15.86;37.89;95343.84;10483088;28;1883;-66
2023/12/25 08:11:14;;;;;;;;;;;;;;;15.87;37.93;95347.25;10492826;28;1874;-67
2023/12/25 08:16:14;;;;;;;;;;;;;;;15.87;37.93;95348.03;10488838;28;5004;-69
2023/12/25 08:21:16;;;;;;;;;;;;;;;15.87;37.92;95348.03;10484184;28;1910;-68
2023/12/25 08:26:16;;;;;;;;;;;;;;;15.88;37.95;95354.84;10476243;28;2218;-67
2023/12/25 08:31:16;;;;;;;;;;;;;;;15.86;37.89;95363.97;10493338;28;1947;-67
2023/12/25 08:36:16;;;;;;;;;;;;;;;15.89;37.86;95368.72;10483600;28;2016;-68
2023/12/25 08:41:17;;;;;;;;;;;;;;;15.88;37.91;95362.69;10477663;28;1930;-66
2023/12/25 08:46:17;;;;;;;;;;;;;;;15.88;38.11;95367.13;10479068;28;1900;-66
2023/12/25 08:51:18;;;;;;;;;;;;;;;15.87;38.12;95379.41;10480684;28;1890;-66
2023/12/25 08:56:21;;;;;;;;;;;;;;;15.87;38.24;95386.44;10473821;28;1908;-67
2023/12/25 09:01:22;;;;;;;;;;;;;;;15.87;38.13;95392.47;10468924;28;1961;-66
2023/12/25 09:06:23;;;;;;;;;;;;;;;15.86;38.15;95388.28;10475964;28;1986;-66
2023/12/25 09:11:24;;;;;;;;;;;;;;;15.88;38.22;95386.22;10462492;28;1986;-66
2023/12/25 09:16:24;;;;;;;;;;;;;;;15.90;38.13;95378.13;10479121;28;5483;-66
2023/12/25 09:21:24;;;;;;;;;;;;;;;15.89;38.11;95379.94;10482645;28;1913;-66
2023/12/25 09:26:24;;;;;;;;;;;;;;;15.90;38.16;95391.97;10485724;28;2064;-66
2023/12/25 09:31:25;;;;;;;;;;;;;;;15.94;38.00;95400.09;10459460;28;1888;-65
2023/12/25 09:36:26;;;;;;;;;;;;;;;15.93;38.00;95401.91;10477802;28;2225;-66
2023/12/25 09:41:32;;;;;;;;;;;;;;;15.95;37.99;95399.84;10473674;28;1947;-65
2023/12/25 09:46:32;;;;;;;;;;;;;;;15.97;38.00;95404.81;10487119;28;2104;-66
2023/12/25 09:51:33;;;;;;;;;;;;;;;15.98;38.05;95399.34;10453639;28;1877;-66
2023/12/25 09:56:34;;;;;;;;;;;;;;;15.98;38.00;95403.78;10467527;28;2106;-66
2023/12/25 10:01:34;;;;;;;;;;;;;;;15.99;38.00;95393.06;10473633;28;2452;-66
2023/12/25 10:06:35;;;;;;;;;;;;;;;15.98;38.10;95382.88;10457809;28;1869;-65
2023/12/25 10:11:35;;;;;;;;;;;;;;;15.95;38.07;95394.59;10487000;28;1867;-67
2023/12/25 10:16:35;;;;;;;;;;;;;;;15.94;38.16;95387.81;10474742;28;2104;-65
2023/12/25 10:21:43;;;;;;;;;;;;;;;15.92;38.20;95369.00;10477506;28;2018;-66
2023/12/25 10:26:43;;;;;;;;;;;;;;;15.94;38.15;95377.34;10481600;28;2108;-67
2023/12/25 10:31:44;;;;;;;;;;;;;;;15.96;38.15;95377.91;10469966;28;2429;-66
2023/12/25 10:36:47;;;;;;;;;;;;;;;15.97;38.09;95379.44;10447977;28;2089;-66
2023/12/25 10:41:49;;;;;;;;;;;;;;;15.97;38.07;95366.38;10469281;28;1957;-66
2023/12/25 10:46:49;;;;;;;;;;;;;;;15.98;38.01;95367.97;10462422;28;2011;-66
2023/12/25 10:51:50;;;;;;;;;;;;;;;15.98;38.02;95341.81;10453850;28;1873;-67
2023/12/25 10:56:50;;;;;;;;;;;;;;;15.99;38.06;95343.38;10456846;28;1887;-66
2023/12/25 11:01:51;;;;;;;;;;;;;;;15.99;38.12;95364.31;10463933;28;2035;-66
2023/12/25 11:06:51;;;;;;;;;;;;;;;15.98;37.89;95365.34;10486911;28;1938;-66
2023/12/25 11:11:51;;;;;;;;;;;;;;;15.99;37.95;95372.16;10466316;28;4891;-66
2023/12/25 11:16:51;;;;;;;;;;;;;;;16.00;38.08;95360.66;10473325;28;1933;-66
2023/12/25 11:21:52;;;;;;;;;;;;;;;15.99;38.03;95356.47;10452915;28;1959;-66
2023/12/25 11:26:53;;;;;;;;;;;;;;;15.98;38.20;95352.28;10474817;28;2381;-66
2023/12/25 11:31:54;;;;;;;;;;;;;;;15.99;38.29;95348.63;10467702;28;2090;-66
2023/12/25 11:36:57;;;;;;;;;;;;;;;16.00;38.32;95344.19;10487008;28;2135;-66
2023/12/25 11:41:57;;;;;;;;;;;;;;;16.01;38.19;95340.53;10474597;28;1921;-67
2023/12/25 11:46:58;;;;;;;;;;;;;;;16.01;38.34;95343.16;10486013;28;2009;-66
2023/12/25 11:51:58;;;;;;;;;;;;;;;16.02;38.31;95342.91;10487734;28;1958;-66
2023/12/25 11:57:02;;;;;;;;;;;;;;;16.05;38.44;95336.38;10475637;28;1879;-66
2023/12/25 12:02:06;;;;;;;;;;;;;;;16.04;38.41;95343.44;10477007;28;1983;-66
2023/12/25 12:07:06;;;;;;;;;;;;;;;16.07;38.47;95347.38;10485815;28;1990;-66
2023/12/25 12:12:07;;;;;;;;;;;;;;;16.06;38.55;95346.56;10477523;28;2093;-67
2023/12/25 12:17:07;;;;;;;;;;;;;;;16.07;38.59;95345.53;10473894;28;1883;-66
2023/12/25 12:22:07;;;;;;;;;;;;;;;16.08;38.51;95352.34;10450322;28;1985;-67
2023/12/25 12:27:08;;;;;;;;;;;;;;;16.10;38.57;95352.88;10474690;28;1911;-66
2023/12/25 12:32:08;;;;;;;;;;;;;;;16.15;38.67;95365.19;10480017;28;1974;-66
2023/12/25 12:37:09;;;;;;;;;;;;;;;16.16;38.57;95359.69;10466944;28;1920;-66
2023/12/25 12:42:11;;;;;;;;;;;;;;;16.17;38.67;95371.75;10479277;28;1914;-66
2023/12/25 12:47:11;;;;;;;;;;;;;;;16.20;38.52;95360.75;10479891;28;1910;-66
2023/12/25 12:52:11;;;;;;;;;;;;;;;16.20;38.60;95345.06;10443414;28;2057;-66
2023/12/25 12:57:12;;;;;;;;;;;;;;;16.23;38.59;95369.94;10473825;28;2454;-69
2023/12/25 13:02:12;;;;;;;;;;;;;;;16.23;38.42;95352.41;10485017;28;1938;-66
2023/12/25 13:07:13;;;;;;;;;;;;;;;16.28;38.51;95351.63;10481769;28;2058;-67
2023/12/25 13:12:13;;;;;;;;;;;;;;;16.27;38.55;95357.91;10475375;28;5095;-67
2023/12/25 13:17:13;;;;;;;;;;;;;;;16.27;38.49;95356.09;10487295;28;1923;-66
2023/12/25 13:22:14;;;;;;;;;;;;;;;16.30;38.55;95360.00;10477924;28;2016;-67
2023/12/25 13:27:14;;;;;;;;;;;;;;;16.35;38.58;95361.84;10480937;28;1930;-67
2023/12/25 13:32:15;;;;;;;;;;;;;;;16.35;38.75;95362.66;10477765;28;2013;-67
2023/12/25 13:37:16;;;;;;;;;;;;;;;16.38;38.58;95366.59;10476597;28;2259;-68
2023/12/25 13:42:17;;;;;;;;;;;;;;;16.35;38.72;95360.03;10481173;28;1985;-67
2023/12/25 13:47:17;;;;;;;;;;;;;;;16.36;38.72;95364.25;10470318;28;1915;-67
2023/12/25 13:52:17;;;;;;;;;;;;;;;16.40;38.52;95367.13;10477058;28;2444;-67
2023/12/25 13:57:18;;;;;;;;;;;;;;;16.38;38.60;95372.63;10482729;28;1994;-67
2023/12/25 14:02:18;;;;;;;;;;;;;;;16.36;38.67;95381.75;10472650;28;1969;-66
2023/12/25 14:07:18;;;;;;;;;;;;;;;16.35;38.85;95385.41;10478604;28;1909;-64
2023/12/25 14:12:18;;;;;;;;;;;;;;;16.35;38.67;95388.00;10466081;28;5094;-66
2023/12/25 14:17:19;;;;;;;;;;;;;;;16.32;38.50;95375.47;10473634;28;2002;-67
2023/12/25 14:22:19;;;;;;;;;;;;;;;16.29;38.57;95369.69;10473265;28;1979;-65
2023/12/25 14:27:19;;;;;;;;;;;;;;;16.28;38.56;95364.69;10469960;28;2141;-69
2023/12/25 14:32:20;;;;;;;;;;;;;;;16.26;38.55;95370.19;10470347;28;1984;-70
2023/12/25 14:37:20;;;;;;;;;;;;;;;16.25;38.55;95370.47;10469539;28;1929;-67
2023/12/25 14:42:20;;;;;;;;;;;;;;;16.22;38.44;95374.34;10451274;28;2049;-65
2023/12/25 14:47:20;;;;;;;;;;;;;;;16.25;38.40;95378.31;10468430;28;2617;-67
2023/12/25 14:52:21;;;;;;;;;;;;;;;16.22;38.37;95363.91;10470391;28;1827;-66
2023/12/25 14:57:21;;;;;;;;;;;;;;;16.20;38.52;95365.97;10470507;28;1945;-66
2023/12/25 15:02:21;;;;;;;;;;;;;;;16.20;38.38;95371.22;10473776;28;1959;-67
2023/12/25 15:07:22;;;;;;;;;;;;;;;16.19;38.35;95368.88;10467697;28;2001;-67
2023/12/25 15:12:22;;;;;;;;;;;;;;;16.17;38.34;95369.13;10478776;28;5055;-66
2023/12/25 15:17:22;;;;;;;;;;;;;;;16.17;38.33;95369.13;10475728;28;1906;-67
2023/12/25 15:22:23;;;;;;;;;;;;;;;16.15;38.33;95365.97;10480708;28;1963;-68
2023/12/25 15:27:23;;;;;;;;;;;;;;;16.14;38.39;95372.22;10482285;28;1966;-66
2023/12/25 15:32:25;;;;;;;;;;;;;;;16.15;38.39;95367.78;10479100;28;1880;-66
2023/12/25 15:37:25;;;;;;;;;;;;;;;16.14;38.27;95369.63;10469973;28;1982;-67
2023/12/25 15:42:25;;;;;;;;;;;;;;;16.14;38.19;95374.84;10484936;28;2032;-68
2023/12/25 15:47:26;;;;;;;;;;;;;;;16.14;38.34;95381.91;10484856;28;2402;-66
2023/12/25 15:52:26;;;;;;;;;;;;;;;16.13;38.32;95386.38;10476651;28;1895;-68
2023/12/25 15:57:29;;;;;;;;;;;;;;;16.14;38.24;95397.59;10473624;28;2048;-68
2023/12/25 16:02:29;;;;;;;;;;;;;;;16.12;38.11;95394.44;10490588;28;1916;-68
2023/12/25 16:07:29;;;;;;;;;;;;;;;16.12;38.17;95404.91;10464794;28;1888;-67
2023/12/25 16:12:30;;;;;;;;;;;;;;;16.10;38.17;95410.38;10480100;28;4953;-67
2023/12/25 16:17:31;;;;;;;;;;;;;;;16.08;38.08;95415.09;10477159;28;1911;-67
2023/12/25 16:22:32;;;;;;;;;;;;;;;16.10;38.11;95418.22;10492365;28;1989;-68
2023/12/25 16:27:32;;;;;;;;;;;;;;;16.07;38.14;95423.19;10466940;28;2275;-66
2023/12/25 16:32:32;;;;;;;;;;;;;;;16.08;38.08;95414.28;10487095;28;2125;-67
2023/12/25 16:37:33;;;;;;;;;;;;;;;16.07;38.09;95423.94;10486621;28;1823;-68
2023/12/25 16:42:33;;;;;;;;;;;;;;;16.09;38.02;95421.09;10497302;28;1964;-67
2023/12/25 16:47:36;;;;;;;;;;;;;;;16.07;37.86;95437.03;10486068;28;2053;-66
2023/12/25 16:52:36;;;;;;;;;;;;;;;16.07;38.06;95447.47;10471823;28;1984;-67
2023/12/25 16:57:37;;;;;;;;;;;;;;;16.07;38.03;95452.72;10480299;28;1895;-66
2023/12/25 17:02:37;;;;;;;;;;;;;;;16.07;38.00;95459.78;10485712;28;1910;-67
2023/12/25 17:07:38;;;;;;;;;;;;;;;16.07;37.96;95450.09;10487317;28;1874;-67
2023/12/25 17:12:38;;;;;;;;;;;;;;;16.07;37.96;95460.56;10493309;28;4956;-66
2023/12/25 17:17:38;;;;;;;;;;;;;;;16.05;37.99;95452.19;10480773;28;1831;-67
2023/12/25 17:22:39;;;;;;;;;;;;;;;16.05;37.96;95459.25;10487426;28;1914;-66
2023/12/25 17:27:39;;;;;;;;;;;;;;;16.04;37.95;95457.66;10486172;28;1870;-66
2023/12/25 17:32:39;;;;;;;;;;;;;;;16.04;37.92;95455.84;10482553;28;1982;-65
2023/12/25 17:37:40;;;;;;;;;;;;;;;16.04;37.98;95455.84;10484574;28;1895;-65
2023/12/25 17:42:40;;;;;;;;;;;;;;;16.04;37.85;95450.63;10491304;28;1979;-66
2023/12/25 17:47:40;;;;;;;;;;;;;;;16.04;37.86;95455.06;10480523;28;1946;-67
2023/12/25 17:52:40;;;;;;;;;;;;;;;16.03;37.86;95449.03;10468677;28;1869;-66
2023/12/25 17:57:41;;;;;;;;;;;;;;;16.04;37.78;95460.28;10465809;28;1983;-67
2023/12/25 18:02:43;;;;;;;;;;;;;;;16.02;37.75;95463.16;10492968;28;1906;-65
2023/12/25 18:07:43;;;;;;;;;;;;;;;16.03;37.77;95459.47;10476723;28;2011;-65
2023/12/25 18:12:44;;;;;;;;;;;;;;;16.03;37.67;95459.47;10461008;28;5035;-66
2023/12/25 18:17:44;;;;;;;;;;;;;;;16.03;37.83;95463.94;10467917;28;2120;-65
2023/12/25 18:22:45;;;;;;;;;;;;;;;16.02;37.76;95463.16;10478113;28;2055;-66
2023/12/25 18:27:45;;;;;;;;;;;;;;;16.02;37.68;95460.53;10487893;28;2001;-66
2023/12/25 18:32:45;;;;;;;;;;;;;;;16.02;37.75;95457.94;10467805;28;2058;-65
2023/12/25 18:37:46;;;;;;;;;;;;;;;16.02;37.72;95467.59;10473989;28;1930;-66
2023/12/25 18:42:46;;;;;;;;;;;;;;;16.03;37.61;95466.56;10467143;28;2252;-65
2023/12/25 18:47:46;;;;;;;;;;;;;;;16.00;37.74;95460.00;10479402;28;2364;-66
2023/12/25 18:52:48;;;;;;;;;;;;;;;16.01;37.64;95466.78;10478866;28;1894;-69
2023/12/25 18:57:48;;;;;;;;;;;;;;;16.01;37.64;95458.94;10456982;28;2553;-65
2023/12/25 19:02:49;;;;;;;;;;;;;;;16.01;37.71;95458.19;10456163;28;1971;-66
2023/12/25 19:07:49;;;;;;;;;;;;;;;16.01;37.64;95456.34;10471243;28;2045;-68
2023/12/25 19:12:50;;;;;;;;;;;;;;;16.00;37.42;95464.44;10480005;28;5008;-68
2023/12/25 19:17:50;;;;;;;;;;;;;;;16.01;37.69;95450.34;10465385;28;2000;-66
2023/12/25 19:22:51;;;;;;;;;;;;;;;15.99;37.58;95453.19;10471759;28;1910;-66
2023/12/25 19:27:52;;;;;;;;;;;;;;;15.99;37.55;95455.78;10485468;28;2030;-67
2023/12/25 19:32:52;;;;;;;;;;;;;;;16.00;37.55;95459.22;10481978;28;1942;-67
2023/12/25 19:37:52;;;;;;;;;;;;;;;15.98;37.54;95466.50;10485674;28;1925;-67
2023/12/25 19:42:53;;;;;;;;;;;;;;;16.00;37.51;95470.47;10484006;28;2439;-67
2023/12/25 19:47:53;;;;;;;;;;;;;;;15.98;37.58;95469.94;10471345;28;1905;-67
2023/12/25 19:52:53;;;;;;;;;;;;;;;15.98;37.55;95477.75;10471643;28;1907;-67
2023/12/25 19:57:54;;;;;;;;;;;;;;;15.98;37.54;95476.97;10476802;28;1980;-67
2023/12/25 20:02:54;;;;;;;;;;;;;;;15.99;37.46;95481.94;10479378;28;1965;-69
2023/12/25 20:07:54;;;;;;;;;;;;;;;15.98;37.41;95477.75;10487787;28;1899;-66
2023/12/25 20:12:55;;;;;;;;;;;;;;;15.97;37.43;95470.94;10488526;28;4920;-66
2023/12/25 20:17:58;;;;;;;;;;;;;;;15.98;37.45;95471.75;10486468;28;1871;-67
2023/12/25 20:22:59;;;;;;;;;;;;;;;15.96;37.51;95472.00;10478021;28;1902;-67
2023/12/25 20:27:59;;;;;;;;;;;;;;;15.97;37.49;95470.19;10484315;28;1936;-67
2023/12/25 20:33:00;;;;;;;;;;;;;;;15.98;37.36;95474.34;10489185;28;2066;-66
2023/12/25 20:38:01;;;;;;;;;;;;;;;15.97;37.40;95465.72;10473739;28;2147;-67
2023/12/25 20:43:01;;;;;;;;;;;;;;;15.96;37.35;95472.00;10484083;28;1952;-71
2023/12/25 20:48:01;;;;;;;;;;;;;;;15.98;37.37;95458.66;10485440;28;1875;-67
2023/12/25 20:53:04;;;;;;;;;;;;;;;15.97;37.33;95464.94;10480980;28;2013;-68
2023/12/25 20:58:04;;;;;;;;;;;;;;;15.96;37.36;95464.16;10480997;28;1955;-66
2023/12/25 21:03:04;;;;;;;;;;;;;;;15.96;37.45;95465.97;10472436;28;1961;-66
2023/12/25 21:08:06;;;;;;;;;;;;;;;15.96;37.35;95461.53;10483053;28;2031;-66
2023/12/25 21:13:07;;;;;;;;;;;;;;;15.97;37.34;95450.03;10486596;28;5149;-66
2023/12/25 21:18:07;;;;;;;;;;;;;;;15.95;37.46;95446.88;10477436;28;1912;-66
2023/12/25 21:23:07;;;;;;;;;;;;;;;15.95;37.36;95440.88;10481140;28;2418;-67
2023/12/25 21:28:08;;;;;;;;;;;;;;;15.95;37.35;95441.66;10474736;28;2019;-67
2023/12/25 21:33:08;;;;;;;;;;;;;;;15.95;37.38;95430.44;10478358;28;1977;-66
2023/12/25 21:38:08;;;;;;;;;;;;;;;15.90;37.31;95433.78;10475795;28;2247;-66
2023/12/25 21:43:09;;;;;;;;;;;;;;;15.95;37.30;95441.66;10483045;28;2097;-67
2023/12/25 21:48:10;;;;;;;;;;;;;;;15.94;37.37;95434.88;10473514;28;1941;-67
2023/12/25 21:53:10;;;;;;;;;;;;;;;15.93;37.35;95435.13;10467654;28;2121;-66
2023/12/25 21:58:10;;;;;;;;;;;;;;;15.93;37.25;95438.50;10471462;28;1913;-66
2023/12/25 22:03:10;;;;;;;;;;;;;;;15.94;37.22;95427.03;10492919;28;1886;-67
2023/12/25 22:08:11;;;;;;;;;;;;;;;15.93;37.32;95437.75;10474207;28;1912;-67
2023/12/25 22:13:11;;;;;;;;;;;;;;;15.94;37.31;95428.84;10460697;28;5114;-66
2023/12/25 22:18:11;;;;;;;;;;;;;;;15.94;37.23;95423.63;10490479;28;1895;-66
2023/12/25 22:23:12;;;;;;;;;;;;;;;15.93;37.29;95414.22;10479108;28;2034;-66
2023/12/25 22:28:12;;;;;;;;;;;;;;;15.92;37.28;95410.81;10476150;28;1871;-66
2023/12/25 22:33:12;;;;;;;;;;;;;;;15.91;37.22;95411.84;10483529;28;2410;-67
2023/12/25 22:38:13;;;;;;;;;;;;;;;15.91;37.25;95404.00;10478724;28;1890;-66
2023/12/25 22:43:13;;;;;;;;;;;;;;;15.91;37.33;95404.00;10474666;28;2046;-65
2023/12/25 22:48:13;;;;;;;;;;;;;;;15.90;37.29;95397.19;10464982;28;1947;-66
2023/12/25 22:53:14;;;;;;;;;;;;;;;15.90;37.35;95404.25;10479718;28;2277;-66
2023/12/25 22:58:14;;;;;;;;;;;;;;;15.90;37.19;95397.19;10492797;28;1906;-65
2023/12/25 23:03:15;;;;;;;;;;;;;;;15.90;37.33;95394.59;10471279;28;2100;-65
2023/12/25 23:08:15;;;;;;;;;;;;;;;15.90;37.21;95391.19;10485784;28;1935;-67
2023/12/25 23:13:16;;;;;;;;;;;;;;;15.89;37.31;95390.38;10492769;28;4971;-66
2023/12/25 23:18:16;;;;;;;;;;;;;;;15.90;37.21;95393.78;10475089;28;2019;-66
2023/12/25 23:23:16;;;;;;;;;;;;;;;15.89;37.04;95395.63;10467218;28;2253;-66
2023/12/25 23:28:19;;;;;;;;;;;;;;;15.90;37.24;95388.56;10483810;28;1971;-67
2023/12/25 23:33:19;;;;;;;;;;;;;;;15.90;37.21;95393.78;10481295;28;1987;-67
2023/12/25 23:38:20;;;;;;;;;;;;;;;15.87;37.26;95379.41;10478572;28;1887;-67
2023/12/25 23:43:20;;;;;;;;;;;;;;;15.88;37.26;95383.59;10477984;28;1930;-70
2023/12/25 23:48:20;;;;;;;;;;;;;;;15.88;37.19;95383.59;10481721;28;1947;-65
2023/12/25 23:53:20;;;;;;;;;;;;;;;15.89;37.25;95384.41;10479008;28;2382;-66
2023/12/25 23:58:21;;;;;;;;;;;;;;;15.89;37.17;95379.16;10474810;28;2054;-67
